Terminal Aerodrome Forecast
Issued by NWS Sioux Falls, SD

Home | Current Version | Previous Version | Graphics & Text | Print | Product List | Glossary On
Versions: 1 2 3 4 5 6 7 8 9 10 11 12 13 14
969
FTUS43 KFSD 260524
TAFFSD
TAF
KFSD 260524Z 2606/2706 36013G20KT P6SM OVC011
     FM260800 33014G21KT P6SM OVC008
     FM261500 33017G24KT P6SM OVC010
     FM261800 33016G24KT P6SM OVC020
     FM270100 34012KT P6SM BKN035=

USA.gov is the U.S. government's official web portal to all federal, state and local government web resources and services.